Time,TemperatureF,DewpointF,PressureIn,WindDirection,WindDirectionDegrees,WindSpeedMPH,WindSpeedGustMPH,Humidity,HourlyPrecipIn,Conditions,Clouds,dailyrainin,SoftwareType,DateUTC
2013-03-01 00:02:00,46.6,46.1,0.00,NNW,347,1.6,2.2,98,0.00,,,0.00,WUHU216CR1000,2013-03-01 08:02:00,
2013-03-01 00:03:00,46.5,46.2,0.00,West,264,1.0,1.6,99,0.00,,,0.00,WUHU216CR1000,2013-03-01 08:03:00,
2013-03-01 00:07:00,46.5,46.2,0.00,West,264,1.0,2.2,99,0.00,,,0.00,WUHU216CR1000,2013-03-01 08:07:00,
2013-03-01 00:12:00,46.5,46.2,0.00,West,264,1.0,1.6,99,0.00,,,0.00,WUHU216CR1000,2013-03-01 08:12:00,
2013-03-01 00:17:00,46.2,45.9,0.00,SW,219,1.3,2.0,99,0.00,,,0.00,WUHU216CR1000,2013-03-01 08:17:00,
2013-03-01 00:22:00,46.2,45.9,0.00,SW,219,1.3,2.0,99,0.00,,,0.00,WUHU216CR1000,2013-03-01 08:22:00,
2013-03-01 00:27:00,46.2,45.9,0.00,SW,219,1.3,2.0,99,0.00,,,0.00,WUHU216CR1000,2013-03-01 08:27:00,
2013-03-01 00:32:00,46.4,46.0,0.00,SSW,206,1.9,3.0,99,0.00,,,0.00,WUHU216CR1000,2013-03-01 08:32:00,
2013-03-01 00:37:00,46.4,46.0,0.00,SSW,206,1.9,3.0,99,0.00,,,0.00,WUHU216CR1000,2013-03-01 08:37:00,
2013-03-01 00:42:00,46.4,46.0,0.00,SSW,206,1.9,3.0,99,0.00,,,0.00,WUHU216CR1000,2013-03-01 08:42:00,
2013-03-01 00:47:00,46.8,46.5,0.00,SW,221,2.0,3.3,99,0.00,,,0.00,WUHU216CR1000,2013-03-01 08:47:00,
2013-03-01 00:52:00,46.8,46.5,0.00,SW,221,2.0,3.3,99,0.00,,,0.00,WUHU216CR1000,2013-03-01 08:52:00,
2013-03-01 00:57:00,46.8,46.5,0.00,SW,221,2.0,3.3,99,0.00,,,0.00,WUHU216CR1000,2013-03-01 08:57:00,
2013-03-01 01:02:00,47.7,47.5,0.00,SW,232,1.7,3.5,99,0.00,,,0.00,WUHU216CR1000,2013-03-01 09:02:00,
2013-03-01 01:07:00,47.7,47.5,0.00,SW,232,1.7,3.5,99,0.00,,,0.00,WUHU216CR1000,2013-03-01 09:07:00,
2013-03-01 01:12:00,47.7,47.5,0.00,SW,232,1.7,3.5,99,0.00,,,0.00,WUHU216CR1000,2013-03-01 09:12:00,
2013-03-01 01:17:00,47.1,46.7,0.00,WSW,242,1.1,3.2,99,0.00,,,0.00,WUHU216CR1000,2013-03-01 09:17:00,
2013-03-01 01:22:00,47.1,46.7,0.00,WSW,242,1.1,3.2,99,0.00,,,0.00,WUHU216CR1000,2013-03-01 09:22:00,
2013-03-01 01:27:00,47.1,46.7,0.00,WSW,242,1.1,3.2,99,0.00,,,0.00,WUHU216CR1000,2013-03-01 09:27:00,
2013-03-01 01:32:00,45.4,44.9,0.00,SW,214,1.2,2.1,98,0.00,,,0.00,WUHU216CR1000,2013-03-01 09:32:00,
2013-03-01 01:37:00,45.4,44.9,0.00,SW,214,1.2,2.1,98,0.00,,,0.00,WUHU216CR1000,2013-03-01 09:37:00,
2013-03-01 01:42:00,45.4,44.9,0.00,SW,214,1.2,2.1,98,0.00,,,0.00,WUHU216CR1000,2013-03-01 09:42:00,
2013-03-01 01:47:00,44.8,44.4,0.00,SSW,211,2.0,2.9,99,0.00,,,0.00,WUHU216CR1000,2013-03-01 09:47:00,
2013-03-01 01:52:00,44.8,44.4,0.00,SSW,211,2.0,2.9,99,0.00,,,0.00,WUHU216CR1000,2013-03-01 09:52:00,
2013-03-01 01:57:00,44.8,44.4,0.00,SSW,211,2.0,2.9,99,0.00,,,0.00,WUHU216CR1000,2013-03-01 09:57:00,
2013-03-01 02:02:00,43.9,43.5,0.00,SSW,207,0.3,1.5,98,0.00,,,0.00,WUHU216CR1000,2013-03-01 10:02:00,
2013-03-01 02:03:00,43.9,43.5,0.00,SSW,207,0.3,1.5,98,0.00,,,0.00,WUHU216CR1000,2013-03-01 10:03:00,
2013-03-01 02:07:00,43.9,43.5,0.00,SSW,207,0.3,1.5,98,0.00,,,0.00,WUHU216CR1000,2013-03-01 10:07:00,
2013-03-01 02:12:00,43.9,43.5,0.00,SSW,207,0.3,1.5,98,0.00,,,0.00,WUHU216CR1000,2013-03-01 10:12:00,
2013-03-01 02:17:00,44.1,43.8,0.00,SSW,205,2.0,4.6,99,0.00,,,0.00,WUHU216CR1000,2013-03-01 10:17:00,
2013-03-01 02:22:00,44.1,43.8,0.00,SSW,205,2.0,4.6,99,0.00,,,0.00,WUHU216CR1000,2013-03-01 10:22:00,
2013-03-01 02:27:00,44.1,43.8,0.00,SSW,205,2.0,4.6,99,0.00,,,0.00,WUHU216CR1000,2013-03-01 10:27:00,
2013-03-01 02:32:00,46.2,45.9,0.00,SW,226,3.7,5.4,99,0.00,,,0.00,WUHU216CR1000,2013-03-01 10:32:00,
2013-03-01 02:33:00,46.2,45.9,0.00,SW,226,3.7,5.4,99,0.00,,,0.00,WUHU216CR1000,2013-03-01 10:33:00,
2013-03-01 02:37:00,46.2,45.9,0.00,SW,226,3.7,5.4,99,0.00,,,0.00,WUHU216CR1000,2013-03-01 10:37:00,
2013-03-01 02:42:00,46.2,45.9,0.00,SW,226,3.7,5.4,99,0.00,,,0.00,WUHU216CR1000,2013-03-01 10:42:00,
2013-03-01 02:47:00,46.2,46.0,0.00,SSW,208,1.9,3.7,99,0.00,,,0.00,WUHU216CR1000,2013-03-01 10:47:00,
2013-03-01 02:52:00,46.2,46.0,0.00,SSW,208,1.9,3.7,99,0.00,,,0.00,WUHU216CR1000,2013-03-01 10:52:00,
2013-03-01 02:57:00,46.2,46.0,0.00,SSW,208,1.9,3.7,99,0.00,,,0.00,WUHU216CR1000,2013-03-01 10:57:00,
2013-03-01 03:02:00,45.2,44.9,0.00,SSW,211,1.6,3.0,99,0.00,,,0.00,WUHU216CR1000,2013-03-01 11:02:00,
2013-03-01 03:07:00,45.2,44.9,0.00,SSW,211,1.6,3.0,99,0.00,,,0.00,WUHU216CR1000,2013-03-01 11:07:00,
2013-03-01 03:12:00,45.2,44.9,0.00,SSW,211,1.6,3.0,99,0.00,,,0.00,WUHU216CR1000,2013-03-01 11:12:00,
2013-03-01 03:17:00,43.6,43.2,0.00,WSW,258,1.4,2.4,99,0.00,,,0.00,WUHU216CR1000,2013-03-01 11:17:00,
2013-03-01 03:22:00,43.6,43.2,0.00,WSW,258,1.4,2.4,99,0.00,,,0.00,WUHU216CR1000,2013-03-01 11:22:00,
2013-03-01 03:27:00,43.6,43.2,0.00,WSW,258,1.4,2.4,99,0.00,,,0.00,WUHU216CR1000,2013-03-01 11:27:00,
2013-03-01 03:32:00,43.1,42.8,0.00,SW,230,0.8,3.1,99,0.00,,,0.00,WUHU216CR1000,2013-03-01 11:32:00,
2013-03-01 03:33:00,43.1,42.8,0.00,SW,230,0.8,3.1,99,0.00,,,0.00,WUHU216CR1000,2013-03-01 11:33:00,
2013-03-01 03:37:00,43.1,42.8,0.00,SW,230,0.8,3.1,99,0.00,,,0.00,WUHU216CR1000,2013-03-01 11:37:00,
2013-03-01 03:42:00,43.1,42.8,0.00,SW,230,0.8,3.1,99,0.00,,,0.00,WUHU216CR1000,2013-03-01 11:42:00,
2013-03-01 03:47:00,42.7,42.4,0.00,SSW,204,1.2,2.1,99,0.00,,,0.00,WUHU216CR1000,2013-03-01 11:47:00,
2013-03-01 03:48:00,42.7,42.4,0.00,SSW,204,1.2,2.1,99,0.00,,,0.00,WUHU216CR1000,2013-03-01 11:48:00,
2013-03-01 03:52:00,42.7,42.4,0.00,SSW,204,1.2,2.1,99,0.00,,,0.00,WUHU216CR1000,2013-03-01 11:52:00,
2013-03-01 03:57:00,42.7,42.4,0.00,SSW,204,1.2,2.1,99,0.00,,,0.00,WUHU216CR1000,2013-03-01 11:57:00,
2013-03-01 04:02:00,42.5,42.2,0.00,SSW,202,2.0,3.5,99,0.00,,,0.00,WUHU216CR1000,2013-03-01 12:02:00,
2013-03-01 04:07:00,42.5,42.2,0.00,SSW,202,2.0,3.5,99,0.00,,,0.00,WUHU216CR1000,2013-03-01 12:07:00,
2013-03-01 04:12:00,42.5,42.2,0.00,SSW,202,2.0,3.5,99,0.00,,,0.00,WUHU216CR1000,2013-03-01 12:12:00,
2013-03-01 04:17:00,42.9,42.7,0.00,WSW,248,1.8,3.2,99,0.00,,,0.00,WUHU216CR1000,2013-03-01 12:17:00,
2013-03-01 04:22:00,42.9,42.7,0.00,WSW,248,1.8,3.2,99,0.00,,,0.00,WUHU216CR1000,2013-03-01 12:22:00,
2013-03-01 04:27:00,42.9,42.7,0.00,WSW,248,1.8,3.2,99,0.00,,,0.00,WUHU216CR1000,2013-03-01 12:27:00,
2013-03-01 04:32:00,41.9,41.7,0.00,SW,218,0.8,2.2,99,0.00,,,0.00,WUHU216CR1000,2013-03-01 12:32:00,
2013-03-01 04:37:00,41.9,41.7,0.00,SW,218,0.8,2.2,99,0.00,,,0.00,WUHU216CR1000,2013-03-01 12:37:00,
2013-03-01 04:42:00,41.9,41.7,0.00,SW,218,0.8,2.2,99,0.00,,,0.00,WUHU216CR1000,2013-03-01 12:42:00,
2013-03-01 04:47:00,42.4,42.2,0.00,WSW,241,1.7,3.1,99,0.00,,,0.00,WUHU216CR1000,2013-03-01 12:47:00,
2013-03-01 04:52:00,42.4,42.2,0.00,WSW,241,1.7,3.1,99,0.00,,,0.00,WUHU216CR1000,2013-03-01 12:52:00,
2013-03-01 04:57:00,42.4,42.2,0.00,WSW,241,1.7,3.1,99,0.00,,,0.00,WUHU216CR1000,2013-03-01 12:57:00,
2013-03-01 05:02:00,42.1,41.9,0.00,SW,232,1.8,3.3,99,0.00,,,0.00,WUHU216CR1000,2013-03-01 13:02:00,
2013-03-01 05:07:00,42.1,41.9,0.00,SW,232,1.8,3.3,99,0.00,,,0.00,WUHU216CR1000,2013-03-01 13:07:00,
2013-03-01 05:12:00,42.1,41.9,0.00,SW,232,1.8,3.3,99,0.00,,,0.00,WUHU216CR1000,2013-03-01 13:12:00,
2013-03-01 05:17:00,42.1,41.9,0.00,SW,220,1.6,4.1,99,0.00,,,0.00,WUHU216CR1000,2013-03-01 13:17:00,
2013-03-01 05:22:00,42.1,41.9,0.00,SW,220,1.6,4.1,99,0.00,,,0.00,WUHU216CR1000,2013-03-01 13:22:00,
2013-03-01 05:27:00,42.1,41.9,0.00,SW,220,1.6,4.1,99,0.00,,,0.00,WUHU216CR1000,2013-03-01 13:27:00,
2013-03-01 05:32:00,42.1,41.9,0.00,SW,214,1.2,2.2,99,0.00,,,0.00,WUHU216CR1000,2013-03-01 13:32:00,
2013-03-01 05:37:00,42.1,41.9,0.00,SW,214,1.2,2.2,99,0.00,,,0.00,WUHU216CR1000,2013-03-01 13:37:00,
2013-03-01 05:42:00,42.1,41.9,0.00,SW,214,1.2,2.2,99,0.00,,,0.00,WUHU216CR1000,2013-03-01 13:42:00,
2013-03-01 05:47:00,42.0,41.8,0.00,SW,221,2.5,3.7,99,0.00,,,0.00,WUHU216CR1000,2013-03-01 13:47:00,
2013-03-01 05:52:00,42.0,41.8,0.00,SW,221,2.5,3.7,99,0.00,,,0.00,WUHU216CR1000,2013-03-01 13:52:00,
2013-03-01 05:57:00,42.0,41.8,0.00,SW,221,2.5,3.7,99,0.00,,,0.00,WUHU216CR1000,2013-03-01 13:57:00,
2013-03-01 06:02:00,42.2,42.0,0.00,SW,233,2.2,3.3,99,0.00,,,0.00,WUHU216CR1000,2013-03-01 14:02:00,
2013-03-01 06:07:00,42.2,42.0,0.00,SW,233,2.2,3.3,99,0.00,,,0.00,WUHU216CR1000,2013-03-01 14:07:00,
2013-03-01 06:12:00,42.2,42.0,0.00,SW,233,2.2,3.3,99,0.00,,,0.00,WUHU216CR1000,2013-03-01 14:12:00,
2013-03-01 06:17:00,41.9,41.7,0.00,SW,214,1.6,2.4,99,0.00,,,0.00,WUHU216CR1000,2013-03-01 14:17:00,
2013-03-01 06:22:00,41.9,41.7,0.00,SW,214,1.6,2.4,99,0.00,,,0.00,WUHU216CR1000,2013-03-01 14:22:00,
2013-03-01 06:27:00,41.9,41.7,0.00,SW,214,1.6,2.4,99,0.00,,,0.00,WUHU216CR1000,2013-03-01 14:27:00,
2013-03-01 06:32:00,41.4,41.3,0.00,WSW,248,1.1,2.4,99,0.00,,,0.00,WUHU216CR1000,2013-03-01 14:32:00,
2013-03-01 06:37:00,41.4,41.3,0.00,WSW,248,1.1,2.4,99,0.00,,,0.00,WUHU216CR1000,2013-03-01 14:37:00,
2013-03-01 06:42:00,41.4,41.3,0.00,WSW,248,1.1,2.4,99,0.00,,,0.00,WUHU216CR1000,2013-03-01 14:42:00,
2013-03-01 06:47:00,41.4,41.3,0.00,SW,225,1.9,2.5,99,0.00,,,0.00,WUHU216CR1000,2013-03-01 14:47:00,
2013-03-01 06:52:00,41.4,41.3,0.00,SW,225,1.9,2.5,99,0.00,,,0.00,WUHU216CR1000,2013-03-01 14:52:00,
2013-03-01 06:57:00,41.4,41.3,0.00,SW,225,1.9,2.5,99,0.00,,,0.00,WUHU216CR1000,2013-03-01 14:57:00,
2013-03-01 07:02:00,41.6,41.4,0.00,SW,225,1.9,2.5,100,0.00,,,0.00,WUHU216CR1000,2013-03-01 15:02:00,
2013-03-01 07:07:00,41.6,41.4,0.00,SW,225,1.9,2.5,100,0.00,,,0.00,WUHU216CR1000,2013-03-01 15:07:00,
2013-03-01 07:12:00,41.6,41.4,0.00,SW,225,1.9,2.5,100,0.00,,,0.00,WUHU216CR1000,2013-03-01 15:12:00,
2013-03-01 07:17:00,42.3,42.2,0.00,WSW,242,1.3,2.9,100,0.00,,,0.00,WUHU216CR1000,2013-03-01 15:17:00,
2013-03-01 07:22:00,42.3,42.2,0.00,WSW,242,1.3,2.9,100,0.00,,,0.00,WUHU216CR1000,2013-03-01 15:22:00,
2013-03-01 07:27:00,42.3,42.2,0.00,WSW,242,1.3,2.9,100,0.00,,,0.00,WUHU216CR1000,2013-03-01 15:27:00,
2013-03-01 07:32:00,42.8,42.6,0.00,SW,220,2.4,3.5,99,0.00,,,0.00,WUHU216CR1000,2013-03-01 15:32:00,
2013-03-01 07:37:00,42.8,42.6,0.00,SW,220,2.4,3.5,99,0.00,,,0.00,WUHU216CR1000,2013-03-01 15:37:00,
2013-03-01 07:42:00,42.8,42.6,0.00,SW,220,2.4,3.5,99,0.00,,,0.00,WUHU216CR1000,2013-03-01 15:42:00,
2013-03-01 07:47:00,44.2,44.0,0.00,SW,221,0.9,2.2,99,0.00,,,0.00,WUHU216CR1000,2013-03-01 15:47:00,
2013-03-01 07:52:00,44.2,44.0,0.00,SW,221,0.9,2.2,99,0.00,,,0.00,WUHU216CR1000,2013-03-01 15:52:00,
2013-03-01 07:57:00,44.2,44.0,0.00,SW,221,0.9,2.2,99,0.00,,,0.00,WUHU216CR1000,2013-03-01 15:57:00,
2013-03-01 08:02:00,47.8,47.6,0.00,North,350,0.7,4.7,100,0.00,,,0.00,WUHU216CR1000,2013-03-01 16:02:00,
2013-03-01 08:07:00,47.8,47.6,0.00,North,350,0.7,4.7,100,0.00,,,0.00,WUHU216CR1000,2013-03-01 16:07:00,
2013-03-01 08:17:00,48.3,48.0,0.00,North,355,3.6,7.7,99,0.00,,,0.00,WUHU216CR1000,2013-03-01 16:17:00,
2013-03-01 08:22:00,48.3,48.0,0.00,North,355,3.6,7.7,99,0.00,,,0.00,WUHU216CR1000,2013-03-01 16:22:00,
2013-03-01 08:27:00,48.3,48.0,0.00,North,355,3.6,7.7,99,0.00,,,0.00,WUHU216CR1000,2013-03-01 16:27:00,
2013-03-01 08:32:00,49.1,48.2,0.00,NW,306,2.4,5.2,97,0.00,,,0.00,WUHU216CR1000,2013-03-01 16:32:00,
2013-03-01 08:37:00,49.1,48.2,0.00,NW,306,2.4,5.2,97,0.00,,,0.00,WUHU216CR1000,2013-03-01 16:37:00,
2013-03-01 08:42:00,49.1,48.2,0.00,NW,306,2.4,5.2,97,0.00,,,0.00,WUHU216CR1000,2013-03-01 16:42:00,
2013-03-01 08:47:00,48.2,47.2,0.00,WSW,238,3.6,5.7,96,0.00,,,0.00,WUHU216CR1000,2013-03-01 16:47:00,
2013-03-01 08:52:00,48.2,47.2,0.00,WSW,238,3.6,5.7,96,0.00,,,0.00,WUHU216CR1000,2013-03-01 16:52:00,
2013-03-01 08:57:00,48.2,47.2,0.00,WSW,238,3.6,5.7,96,0.00,,,0.00,WUHU216CR1000,2013-03-01 16:57:00,
2013-03-01 09:02:00,50.6,49.0,0.00,West,264,1.4,3.6,94,0.00,,,0.00,WUHU216CR1000,2013-03-01 17:02:00,
2013-03-01 09:07:00,50.6,49.0,0.00,West,264,1.4,3.6,94,0.00,,,0.00,WUHU216CR1000,2013-03-01 17:07:00,
2013-03-01 09:12:00,50.6,49.0,0.00,West,264,1.4,3.6,94,0.00,,,0.00,WUHU216CR1000,2013-03-01 17:12:00,
2013-03-01 09:17:00,53.9,49.6,0.00,NE,48,2.3,5.2,85,0.00,,,0.00,WUHU216CR1000,2013-03-01 17:17:00,
2013-03-01 09:22:00,53.9,49.6,0.00,NE,48,2.3,5.2,85,0.00,,,0.00,WUHU216CR1000,2013-03-01 17:22:00,
2013-03-01 09:27:00,53.9,49.6,0.00,NE,48,2.3,5.2,85,0.00,,,0.00,WUHU216CR1000,2013-03-01 17:27:00,
2013-03-01 09:32:00,54.8,49.7,0.00,NNE,15,3.0,6.2,83,0.00,,,0.00,WUHU216CR1000,2013-03-01 17:32:00,
2013-03-01 09:37:00,54.8,49.7,0.00,NNE,15,3.0,6.2,83,0.00,,,0.00,WUHU216CR1000,2013-03-01 17:37:00,
2013-03-01 09:42:00,54.8,49.7,0.00,NNE,15,3.0,6.2,83,0.00,,,0.00,WUHU216CR1000,2013-03-01 17:42:00,
2013-03-01 09:47:00,56.2,49.7,0.00,NNE,27,3.7,8.7,79,0.00,,,0.00,WUHU216CR1000,2013-03-01 17:47:00,
2013-03-01 09:52:00,56.2,49.7,0.00,NNE,27,3.7,8.7,79,0.00,,,0.00,WUHU216CR1000,2013-03-01 17:52:00,
2013-03-01 09:57:00,56.2,49.7,0.00,NNE,27,3.7,8.7,79,0.00,,,0.00,WUHU216CR1000,2013-03-01 17:57:00,
2013-03-01 10:02:00,57.7,50.2,0.00,North,4,4.0,7.6,76,0.00,,,0.00,WUHU216CR1000,2013-03-01 18:02:00,
2013-03-01 10:07:00,57.7,50.2,0.00,North,4,4.0,7.6,76,0.00,,,0.00,WUHU216CR1000,2013-03-01 18:07:00,
2013-03-01 10:12:00,57.7,50.2,0.00,North,4,4.0,7.6,76,0.00,,,0.00,WUHU216CR1000,2013-03-01 18:12:00,
2013-03-01 10:17:00,59.4,50.1,0.00,NNE,27,2.4,6.0,71,0.00,,,0.00,WUHU216CR1000,2013-03-01 18:17:00,
2013-03-01 10:22:00,59.4,50.1,0.00,NNE,27,2.4,6.0,71,0.00,,,0.00,WUHU216CR1000,2013-03-01 18:22:00,
2013-03-01 10:27:00,59.4,50.1,0.00,NNE,27,2.4,6.0,71,0.00,,,0.00,WUHU216CR1000,2013-03-01 18:27:00,
2013-03-01 10:32:00,62.0,50.6,0.00,NE,36,0.7,3.2,66,0.00,,,0.00,WUHU216CR1000,2013-03-01 18:32:00,
2013-03-01 10:37:00,62.0,50.6,0.00,NE,36,0.7,3.2,66,0.00,,,0.00,WUHU216CR1000,2013-03-01 18:37:00,
2013-03-01 10:42:00,62.0,50.6,0.00,NE,36,0.7,3.2,66,0.00,,,0.00,WUHU216CR1000,2013-03-01 18:42:00,
2013-03-01 10:47:00,62.5,50.3,0.00,NE,54,1.4,4.3,64,0.00,,,0.00,WUHU216CR1000,2013-03-01 18:47:00,
2013-03-01 10:52:00,62.5,50.3,0.00,NE,54,1.4,4.3,64,0.00,,,0.00,WUHU216CR1000,2013-03-01 18:52:00,
2013-03-01 10:57:00,62.5,50.3,0.00,NE,54,1.4,4.3,64,0.00,,,0.00,WUHU216CR1000,2013-03-01 18:57:00,
2013-03-01 11:02:00,63.0,50.4,0.00,North,355,2.5,5.5,63,0.00,,,0.00,WUHU216CR1000,2013-03-01 19:02:00,
2013-03-01 11:07:00,63.0,50.4,0.00,North,355,2.5,5.5,63,0.00,,,0.00,WUHU216CR1000,2013-03-01 19:07:00,
2013-03-01 11:17:00,64.2,49.6,0.00,NNW,333,1.4,3.2,59,0.00,,,0.00,WUHU216CR1000,2013-03-01 19:17:00,
2013-03-01 11:22:00,64.2,49.6,0.00,NNW,333,1.4,3.2,59,0.00,,,0.00,WUHU216CR1000,2013-03-01 19:22:00,
2013-03-01 11:27:00,64.2,49.6,0.00,NNW,333,1.4,3.2,59,0.00,,,0.00,WUHU216CR1000,2013-03-01 19:27:00,
2013-03-01 11:32:00,65.1,49.5,0.00,NE,50,1.6,4.7,57,0.00,,,0.00,WUHU216CR1000,2013-03-01 19:32:00,
2013-03-01 11:33:00,65.1,49.5,0.00,NE,50,1.6,4.7,57,0.00,,,0.00,WUHU216CR1000,2013-03-01 19:33:00,
2013-03-01 11:37:00,65.1,49.5,0.00,NE,50,1.6,4.7,57,0.00,,,0.00,WUHU216CR1000,2013-03-01 19:37:00,
2013-03-01 11:42:00,65.1,49.5,0.00,NE,50,1.6,4.7,57,0.00,,,0.00,WUHU216CR1000,2013-03-01 19:42:00,
2013-03-01 11:47:00,66.2,50.4,0.00,WSW,237,1.4,4.8,57,0.00,,,0.00,WUHU216CR1000,2013-03-01 19:47:00,
2013-03-01 11:52:00,66.2,50.4,0.00,WSW,237,1.4,4.8,57,0.00,,,0.00,WUHU216CR1000,2013-03-01 19:52:00,
2013-03-01 11:57:00,66.2,50.4,0.00,WSW,237,1.4,4.8,57,0.00,,,0.00,WUHU216CR1000,2013-03-01 19:57:00,
2013-03-01 12:02:00,67.6,50.9,0.00,WSW,238,2.0,4.4,55,0.00,,,0.00,WUHU216CR1000,2013-03-01 20:02:00,
2013-03-01 12:07:00,67.6,50.9,0.00,WSW,238,2.0,4.4,55,0.00,,,0.00,WUHU216CR1000,2013-03-01 20:07:00,
2013-03-01 12:12:00,67.6,50.9,0.00,WSW,238,2.0,4.4,55,0.00,,,0.00,WUHU216CR1000,2013-03-01 20:12:00,
2013-03-01 12:17:00,68.1,50.4,0.00,SSW,204,1.8,5.3,53,0.00,,,0.00,WUHU216CR1000,2013-03-01 20:17:00,
2013-03-01 12:22:00,68.1,50.4,0.00,SSW,204,1.8,5.3,53,0.00,,,0.00,WUHU216CR1000,2013-03-01 20:22:00,
2013-03-01 12:27:00,68.1,50.4,0.00,SSW,204,1.8,5.3,53,0.00,,,0.00,WUHU216CR1000,2013-03-01 20:27:00,
2013-03-01 12:32:00,68.8,50.2,0.00,NNW,336,1.2,4.8,52,0.00,,,0.00,WUHU216CR1000,2013-03-01 20:32:00,
2013-03-01 12:37:00,68.8,50.2,0.00,NNW,336,1.2,4.8,52,0.00,,,0.00,WUHU216CR1000,2013-03-01 20:37:00,
2013-03-01 12:42:00,68.8,50.2,0.00,NNW,336,1.2,4.8,52,0.00,,,0.00,WUHU216CR1000,2013-03-01 20:42:00,
2013-03-01 12:47:00,69.4,50.3,0.00,SW,219,2.5,5.2,51,0.00,,,0.00,WUHU216CR1000,2013-03-01 20:47:00,
2013-03-01 12:52:00,69.4,50.3,0.00,SW,219,2.5,5.2,51,0.00,,,0.00,WUHU216CR1000,2013-03-01 20:52:00,
2013-03-01 12:57:00,69.4,50.3,0.00,SW,219,2.5,5.2,51,0.00,,,0.00,WUHU216CR1000,2013-03-01 20:57:00,
2013-03-01 13:02:00,70.2,50.1,0.00,SE,140,3.0,6.0,49,0.00,,,0.00,WUHU216CR1000,2013-03-01 21:02:00,
2013-03-01 13:07:00,70.2,50.1,0.00,SE,140,3.0,6.0,49,0.00,,,0.00,WUHU216CR1000,2013-03-01 21:07:00,
2013-03-01 13:17:00,70.5,48.7,0.00,SE,125,2.0,4.9,46,0.00,,,0.00,WUHU216CR1000,2013-03-01 21:17:00,
2013-03-01 13:22:00,70.5,48.7,0.00,SE,125,2.0,4.9,46,0.00,,,0.00,WUHU216CR1000,2013-03-01 21:22:00,
2013-03-01 13:27:00,70.5,48.7,0.00,SE,125,2.0,4.9,46,0.00,,,0.00,WUHU216CR1000,2013-03-01 21:27:00,
2013-03-01 13:32:00,71.2,49.3,0.00,WSW,238,2.8,6.8,46,0.00,,,0.00,WUHU216CR1000,2013-03-01 21:32:00,
2013-03-01 13:37:00,71.2,49.3,0.00,WSW,238,2.8,6.8,46,0.00,,,0.00,WUHU216CR1000,2013-03-01 21:37:00,
2013-03-01 13:42:00,71.2,49.3,0.00,WSW,238,2.8,6.8,46,0.00,,,0.00,WUHU216CR1000,2013-03-01 21:42:00,
2013-03-01 13:47:00,71.8,47.0,0.00,WSW,243,2.4,6.7,41,0.00,,,0.00,WUHU216CR1000,2013-03-01 21:47:00,
2013-03-01 13:52:00,71.8,47.0,0.00,WSW,243,2.4,6.7,41,0.00,,,0.00,WUHU216CR1000,2013-03-01 21:52:00,
2013-03-01 13:57:00,71.8,47.0,0.00,WSW,243,2.4,6.7,41,0.00,,,0.00,WUHU216CR1000,2013-03-01 21:57:00,
2013-03-01 14:02:00,72.5,46.2,0.00,North,360,2.4,5.7,39,0.00,,,0.00,WUHU216CR1000,2013-03-01 22:02:00,
2013-03-01 14:07:00,72.5,46.2,0.00,North,360,2.4,5.7,39,0.00,,,0.00,WUHU216CR1000,2013-03-01 22:07:00,
2013-03-01 14:17:00,73.3,44.4,0.00,South,186,2.0,6.5,36,0.00,,,0.00,WUHU216CR1000,2013-03-01 22:17:00,
2013-03-01 14:22:00,73.3,44.4,0.00,South,186,2.0,6.5,36,0.00,,,0.00,WUHU216CR1000,2013-03-01 22:22:00,
2013-03-01 14:27:00,73.3,44.4,0.00,South,186,2.0,6.5,36,0.00,,,0.00,WUHU216CR1000,2013-03-01 22:27:00,
2013-03-01 14:32:00,73.6,44.4,0.00,ESE,105,2.4,7.0,35,0.00,,,0.00,WUHU216CR1000,2013-03-01 22:32:00,
2013-03-01 14:37:00,73.6,44.4,0.00,ESE,105,2.4,7.0,35,0.00,,,0.00,WUHU216CR1000,2013-03-01 22:37:00,
2013-03-01 14:42:00,73.6,44.4,0.00,ESE,105,2.4,7.0,35,0.00,,,0.00,WUHU216CR1000,2013-03-01 22:42:00,
2013-03-01 14:47:00,74.2,45.0,0.00,South,173,3.2,8.6,35,0.00,,,0.00,WUHU216CR1000,2013-03-01 22:47:00,
2013-03-01 14:52:00,74.2,45.0,0.00,South,173,3.2,8.6,35,0.00,,,0.00,WUHU216CR1000,2013-03-01 22:52:00,
2013-03-01 14:57:00,74.2,45.0,0.00,South,173,3.2,8.6,35,0.00,,,0.00,WUHU216CR1000,2013-03-01 22:57:00,
2013-03-01 15:02:00,74.0,49.7,0.00,SSW,195,4.1,9.5,43,0.00,,,0.00,WUHU216CR1000,2013-03-01 23:02:00,
2013-03-01 15:07:00,74.0,49.7,0.00,SSW,195,4.1,9.5,43,0.00,,,0.00,WUHU216CR1000,2013-03-01 23:07:00,
2013-03-01 15:12:00,74.0,49.7,0.00,SSW,195,4.1,9.5,43,0.00,,,0.00,WUHU216CR1000,2013-03-01 23:12:00,
2013-03-01 15:17:00,73.2,51.1,0.00,South,191,5.0,10.5,46,0.00,,,0.00,WUHU216CR1000,2013-03-01 23:17:00,
2013-03-01 15:22:00,73.2,51.1,0.00,South,191,5.0,10.5,46,0.00,,,0.00,WUHU216CR1000,2013-03-01 23:22:00,
2013-03-01 15:27:00,73.2,51.1,0.00,South,191,5.0,10.5,46,0.00,,,0.00,WUHU216CR1000,2013-03-01 23:27:00,
2013-03-01 15:32:00,73.2,51.4,0.00,SW,214,4.7,9.3,46,0.00,,,0.00,WUHU216CR1000,2013-03-01 23:32:00,
2013-03-01 15:37:00,73.2,51.4,0.00,SW,214,4.7,9.3,46,0.00,,,0.00,WUHU216CR1000,2013-03-01 23:37:00,
2013-03-01 15:42:00,73.2,51.4,0.00,SW,214,4.7,9.3,46,0.00,,,0.00,WUHU216CR1000,2013-03-01 23:42:00,
2013-03-01 15:47:00,72.6,50.5,0.00,SSW,209,4.4,11.2,46,0.00,,,0.00,WUHU216CR1000,2013-03-01 23:47:00,
2013-03-01 15:48:00,72.6,50.5,0.00,SSW,209,4.4,11.2,46,0.00,,,0.00,WUHU216CR1000,2013-03-01 23:48:00,
2013-03-01 15:52:00,72.6,50.5,0.00,SSW,209,4.4,11.2,46,0.00,,,0.00,WUHU216CR1000,2013-03-01 23:52:00,
2013-03-01 15:57:00,72.6,50.5,0.00,SSW,209,4.4,11.2,46,0.00,,,0.00,WUHU216CR1000,2013-03-01 23:57:00,
2013-03-01 16:02:00,72.5,50.7,0.00,SW,224,3.9,8.2,46,0.00,,,0.00,WUHU216CR1000,2013-03-02 00:02:00,
2013-03-01 16:07:00,72.5,50.7,0.00,SW,224,3.9,8.2,46,0.00,,,0.00,WUHU216CR1000,2013-03-02 00:07:00,
2013-03-01 16:12:00,72.5,50.7,0.00,SW,224,3.9,8.2,46,0.00,,,0.00,WUHU216CR1000,2013-03-02 00:12:00,
2013-03-01 16:17:00,72.0,50.5,0.00,SW,216,4.2,8.8,47,0.00,,,0.00,WUHU216CR1000,2013-03-02 00:17:00,
2013-03-01 16:22:00,72.0,50.5,0.00,SW,216,4.2,8.8,47,0.00,,,0.00,WUHU216CR1000,2013-03-02 00:22:00,
2013-03-01 16:27:00,72.0,50.5,0.00,SW,216,4.2,8.8,47,0.00,,,0.00,WUHU216CR1000,2013-03-02 00:27:00,
2013-03-01 16:32:00,71.3,50.2,0.00,SSW,211,4.0,7.8,47,0.00,,,0.00,WUHU216CR1000,2013-03-02 00:32:00,
2013-03-01 16:37:00,71.3,50.2,0.00,SSW,211,4.0,7.8,47,0.00,,,0.00,WUHU216CR1000,2013-03-02 00:37:00,
2013-03-01 16:42:00,71.3,50.2,0.00,SSW,211,4.0,7.8,47,0.00,,,0.00,WUHU216CR1000,2013-03-02 00:42:00,
2013-03-01 16:47:00,70.6,50.2,0.00,SW,223,2.9,5.8,48,0.00,,,0.00,WUHU216CR1000,2013-03-02 00:47:00,
2013-03-01 16:48:00,70.6,50.2,0.00,SW,223,2.9,5.8,48,0.00,,,0.00,WUHU216CR1000,2013-03-02 00:48:00,
2013-03-01 16:52:00,70.6,50.2,0.00,SW,223,2.9,5.8,48,0.00,,,0.00,WUHU216CR1000,2013-03-02 00:52:00,
2013-03-01 16:57:00,70.6,50.2,0.00,SW,223,2.9,5.8,48,0.00,,,0.00,WUHU216CR1000,2013-03-02 00:57:00,
2013-03-01 17:02:00,70.7,50.0,0.00,SW,217,2.9,7.2,48,0.00,,,0.00,WUHU216CR1000,2013-03-02 01:02:00,
2013-03-01 17:07:00,70.7,50.0,0.00,SW,217,2.9,7.2,48,0.00,,,0.00,WUHU216CR1000,2013-03-02 01:07:00,
2013-03-01 17:17:00,69.4,49.0,0.00,SW,234,3.1,5.8,48,0.00,,,0.00,WUHU216CR1000,2013-03-02 01:17:00,
2013-03-01 17:22:00,69.4,49.0,0.00,SW,234,3.1,5.8,48,0.00,,,0.00,WUHU216CR1000,2013-03-02 01:22:00,
2013-03-01 17:27:00,69.4,49.0,0.00,SW,234,3.1,5.8,48,0.00,,,0.00,WUHU216CR1000,2013-03-02 01:27:00,